Oakfield, New York
Current Conditions -  °F | °C
As of 11:32 PM on Wednesday 22 Oct 2014 (Local Time) from KBUF Reporting Station
Broken Clouds Broken Clouds  
Wind Chill: 42°   Ceiling: 6000
Heat Index: 46°   Visibility: 10mi
Dew Point: 41°   Wind: 7mph
Humidity: 83%   Direction: 350°N
Pressure: 30.18"   Gusts: NA
Location:  43.07°N, 78.27°W
Report Text: KBUF 230332Z 35006KT 10SM FEW018 SCT029 BKN060 08/05 A3018 RMK AO2 T00780050
Loading
Personal Weather Stations






























Interactive Weather Map
Tropical Storm Tracking
New forecast layout! Learn more

10-Day Weather Forecast

Advertisements
Track Severe Weather on mobile